Time;durP1;ratioP1;P1;durP2;ratioP2;P2;SDS_P1;SDS_P2;PMS_P1;PMS_P2;Temp;Humidity;BMP_temperature;BMP_pressure;BME280_temperature;BME280_humidity;BME280_pressure;Samples;Min_cycle;Max_cycle;Signal;HPM_P1;HPM_P2
2023/08/23 00:03:07;;;;;;;9.50;6.07;;;;;;;;;;8466994;28;20048;-87
2023/08/23 00:07:09;;;;;;;9.23;5.80;;;;;;;;;;8467173;28;20109;-88
2023/08/23 00:11:12;;;;;;;7.85;5.63;;;;;;;;;;8467042;28;20071;-87
2023/08/23 00:15:16;;;;;;;11.90;6.00;;;;;;;;;;8466239;28;20475;-87
2023/08/23 00:19:19;;;;;;;9.55;6.00;;;;;;;;;;8466949;28;20072;-88
2023/08/23 00:23:22;;;;;;;11.30;5.55;;;;;;;;;;8466503;28;20130;-87
2023/08/23 00:27:25;;;;;;;8.60;5.25;;;;;;;;;;8466267;28;20079;-87
2023/08/23 00:31:29;;;;;;;9.82;6.15;;;;;;;;;;8466251;28;20047;-87
2023/08/23 00:35:32;;;;;;;9.98;6.32;;;;;;;;;;8465786;28;20065;-87
2023/08/23 00:39:34;;;;;;;10.88;5.88;;;;;;;;;;8465710;28;20126;-87
2023/08/23 00:43:37;;;;;;;10.30;7.13;;;;;;;;;;8465549;28;20511;-87
2023/08/23 00:47:42;;;;;;;9.07;6.43;;;;;;;;;;8465904;28;20031;-87
2023/08/23 00:51:45;;;;;;;10.07;5.85;;;;;;;;;;8465212;28;20051;-87
2023/08/23 00:55:48;;;;;;;12.38;6.53;;;;;;;;;;8465472;28;20084;-87
2023/08/23 00:59:51;;;;;;;10.50;6.43;;;;;;;;;;8465124;28;20104;-87
2023/08/23 01:03:58;;;;;;;8.25;6.32;;;;;;;;;;8465183;28;20063;-87
2023/08/23 01:08:09;;;;;;;10.52;6.38;;;;;;;;;;8465119;28;20168;-87
2023/08/23 01:12:21;;;;;;;11.27;6.80;;;;;;;;;;8464778;28;20035;-87
2023/08/23 01:16:26;;;;;;;11.93;6.90;;;;;;;;;;8464656;28;20048;-87
2023/08/23 01:20:31;;;;;;;12.60;6.93;;;;;;;;;;8464979;28;20043;-87
2023/08/23 01:24:36;;;;;;;11.95;6.28;;;;;;;;;;8464382;28;20044;-87
2023/08/23 01:28:39;;;;;;;10.82;5.88;;;;;;;;;;8464301;28;20040;-87
2023/08/23 01:32:49;;;;;;;8.93;5.18;;;;;;;;;;8463527;28;20134;-87
2023/08/23 01:36:54;;;;;;;10.57;5.40;;;;;;;;;;8463998;28;20044;-87
2023/08/23 01:40:59;;;;;;;9.68;5.00;;;;;;;;;;8463764;28;20118;-87
2023/08/23 01:45:02;;;;;;;8.60;4.55;;;;;;;;;;8463131;28;20407;-87
2023/08/23 01:49:05;;;;;;;8.85;4.72;;;;;;;;;;8463300;28;20128;-87
2023/08/23 01:53:08;;;;;;;7.45;4.90;;;;;;;;;;8463413;28;20150;-87
2023/08/23 01:57:12;;;;;;;7.97;4.28;;;;;;;;;;8463497;28;20093;-87
2023/08/23 02:01:15;;;;;;;8.88;4.70;;;;;;;;;;8463627;28;20039;-87
2023/08/23 02:05:18;;;;;;;8.70;4.85;;;;;;;;;;8462586;28;20452;-87
2023/08/23 02:09:20;;;;;;;8.02;4.75;;;;;;;;;;8463287;28;20040;-87
2023/08/23 02:13:25;;;;;;;7.15;4.53;;;;;;;;;;8462675;28;20057;-87
2023/08/23 02:17:28;;;;;;;7.72;5.13;;;;;;;;;;8462854;28;20031;-87
2023/08/23 02:21:31;;;;;;;9.68;4.63;;;;;;;;;;8462756;28;20058;-87
2023/08/23 02:25:33;;;;;;;7.28;4.30;;;;;;;;;;8462515;28;20047;-88
2023/08/23 02:29:38;;;;;;;7.72;4.32;;;;;;;;;;8462892;28;20047;-87
2023/08/23 02:33:40;;;;;;;7.47;4.55;;;;;;;;;;8462656;28;20090;-87
2023/08/23 02:37:43;;;;;;;7.72;3.85;;;;;;;;;;8462484;28;20475;-88
2023/08/23 02:41:46;;;;;;;8.98;4.03;;;;;;;;;;8462694;28;20582;-87
2023/08/23 02:45:50;;;;;;;7.43;4.03;;;;;;;;;;8462328;28;20066;-87
2023/08/23 02:49:53;;;;;;;8.27;4.75;;;;;;;;;;8462302;28;20538;-87
2023/08/23 02:53:56;;;;;;;9.65;4.60;;;;;;;;;;8457653;28;20039;-87
2023/08/23 02:57:59;;;;;;;8.80;4.78;;;;;;;;;;8467226;28;20131;-87
2023/08/23 03:02:03;;;;;;;11.98;4.85;;;;;;;;;;8468843;28;20074;-87
2023/08/23 03:06:06;;;;;;;12.05;5.63;;;;;;;;;;8469054;28;20151;-88
2023/08/23 03:10:09;;;;;;;9.52;6.10;;;;;;;;;;8497664;27;20065;-87
2023/08/23 03:14:12;;;;;;;11.15;5.78;;;;;;;;;;8502330;27;20122;-88
2023/08/23 03:18:17;;;;;;;13.07;5.55;;;;;;;;;;8502523;27;20131;-87
2023/08/23 03:22:19;;;;;;;9.25;5.10;;;;;;;;;;8502419;27;20043;-88
2023/08/23 03:26:22;;;;;;;7.90;5.18;;;;;;;;;;8502154;27;20043;-87
2023/08/23 03:30:25;;;;;;;9.70;5.05;;;;;;;;;;8502100;27;20065;-86
2023/08/23 03:34:29;;;;;;;9.98;5.68;;;;;;;;;;8501570;27;20510;-88
2023/08/23 03:38:32;;;;;;;7.43;5.25;;;;;;;;;;8501560;27;20055;-87
2023/08/23 03:42:34;;;;;;;10.23;5.65;;;;;;;;;;8501097;27;20542;-87
2023/08/23 03:46:37;;;;;;;9.68;5.45;;;;;;;;;;8501090;27;20039;-87
2023/08/23 03:50:41;;;;;;;10.70;5.78;;;;;;;;;;8479463;27;20048;-87
2023/08/23 03:54:44;;;;;;;10.23;6.90;;;;;;;;;;8467427;28;20043;-88
2023/08/23 03:58:47;;;;;;;9.45;6.90;;;;;;;;;;8467042;28;20040;-88
2023/08/23 04:02:50;;;;;;;11.23;6.93;;;;;;;;;;8475638;27;20654;-87
2023/08/23 04:06:54;;;;;;;8.85;5.85;;;;;;;;;;8500105;27;20054;-88
2023/08/23 04:10:57;;;;;;;11.95;6.20;;;;;;;;;;8500602;27;20527;-88
2023/08/23 04:15:00;;;;;;;10.18;6.53;;;;;;;;;;8500402;27;20524;-87
2023/08/23 04:19:02;;;;;;;12.27;7.35;;;;;;;;;;8471833;27;20043;-87
2023/08/23 04:23:08;;;;;;;11.52;7.45;;;;;;;;;;8473531;27;20118;-88
2023/08/23 04:27:10;;;;;;;8.80;5.97;;;;;;;;;;8466728;27;20475;-88
2023/08/23 04:31:13;;;;;;;9.82;5.75;;;;;;;;;;8465937;28;20471;-88
2023/08/23 04:35:16;;;;;;;8.30;5.28;;;;;;;;;;8466235;28;20052;-88
2023/08/23 04:39:21;;;;;;;13.73;6.22;;;;;;;;;;8466208;28;20522;-88
2023/08/23 04:43:24;;;;;;;8.25;5.50;;;;;;;;;;8457915;27;20479;-88
2023/08/23 04:47:27;;;;;;;7.20;4.68;;;;;;;;;;8493743;27;20046;-88
2023/08/23 04:51:30;;;;;;;9.80;5.25;;;;;;;;;;8498381;27;20088;-87
2023/08/23 04:55:34;;;;;;;7.18;4.40;;;;;;;;;;8497854;27;20043;-88
2023/08/23 04:59:38;;;;;;;6.10;3.88;;;;;;;;;;8485738;27;20403;-88
2023/08/23 05:03:41;;;;;;;6.40;3.55;;;;;;;;;;8461282;27;20448;-89
2023/08/23 05:07:44;;;;;;;7.18;3.10;;;;;;;;;;8463439;27;20044;-88
2023/08/23 05:11:49;;;;;;;7.03;3.10;;;;;;;;;;8450866;27;20217;-88
2023/08/23 05:15:52;;;;;;;4.18;2.47;;;;;;;;;;8477908;27;20069;-88
2023/08/23 05:19:55;;;;;;;5.53;2.63;;;;;;;;;;8462313;28;20517;-88
2023/08/23 05:23:58;;;;;;;11.40;5.20;;;;;;;;;;8463844;28;20070;-88
2023/08/23 05:28:02;;;;;;;6.43;2.70;;;;;;;;;;8462983;28;20055;-88
2023/08/23 05:32:05;;;;;;;4.65;2.60;;;;;;;;;;8463760;28;20039;-89
2023/08/23 05:36:08;;;;;;;5.25;2.72;;;;;;;;;;8459896;28;20125;-89
2023/08/23 05:40:11;;;;;;;5.18;3.35;;;;;;;;;;8459051;28;20093;-88
2023/08/23 05:44:18;;;;;;;6.10;2.90;;;;;;;;;;8476621;27;20491;-87
2023/08/23 05:48:22;;;;;;;4.93;2.58;;;;;;;;;;8463829;28;20395;-88
2023/08/23 05:52:25;;;;;;;5.28;2.50;;;;;;;;;;8463002;28;20051;-88
2023/08/23 05:56:28;;;;;;;6.30;2.65;;;;;;;;;;8463618;28;20534;-88
2023/08/23 06:00:32;;;;;;;6.43;2.78;;;;;;;;;;8463228;28;20044;-88
2023/08/23 06:04:35;;;;;;;7.07;2.60;;;;;;;;;;8463452;28;20608;-87
2023/08/23 06:08:37;;;;;;;6.65;2.63;;;;;;;;;;8444441;28;20089;-88
2023/08/23 06:12:40;;;;;;;5.10;2.55;;;;;;;;;;8463247;28;20176;-88
2023/08/23 06:16:45;;;;;;;4.88;2.58;;;;;;;;;;8462642;28;20131;-88
2023/08/23 06:20:49;;;;;;;3.97;2.25;;;;;;;;;;8462682;28;20039;-88
2023/08/23 06:24:52;;;;;;;5.18;2.40;;;;;;;;;;8462765;28;20173;-88
2023/08/23 06:28:55;;;;;;;4.32;2.40;;;;;;;;;;8462762;28;20428;-88
2023/08/23 06:32:59;;;;;;;5.45;2.42;;;;;;;;;;8461982;28;20047;-88
2023/08/23 06:37:02;;;;;;;4.95;2.28;;;;;;;;;;8461543;28;20046;-88
2023/08/23 06:41:05;;;;;;;4.60;2.58;;;;;;;;;;8486335;27;20658;-88
2023/08/23 06:45:09;;;;;;;5.45;2.20;;;;;;;;;;8451897;28;20059;-89
2023/08/23 06:49:16;;;;;;;4.38;2.47;;;;;;;;;;8460973;28;20165;-88
2023/08/23 06:53:22;;;;;;;4.28;2.30;;;;;;;;;;8459473;28;20051;-87
2023/08/23 06:57:30;;;;;;;4.55;2.25;;;;;;;;;;8467740;28;20047;-88
2023/08/23 07:01:35;;;;;;;3.78;2.50;;;;;;;;;;8495394;28;20492;-88
2023/08/23 07:05:40;;;;;;;6.07;2.97;;;;;;;;;;8495421;28;20439;-86
2023/08/23 07:09:43;;;;;;;4.97;3.15;;;;;;;;;;8495387;28;20051;-86
2023/08/23 07:13:46;;;;;;;5.40;3.03;;;;;;;;;;8495842;28;20401;-89
2023/08/23 07:17:50;;;;;;;3.53;2.35;;;;;;;;;;8495522;28;20039;-88
2023/08/23 07:21:54;;;;;;;4.72;2.35;;;;;;;;;;8495195;28;20099;-88
2023/08/23 07:25:57;;;;;;;5.40;2.58;;;;;;;;;;8495458;28;20042;-87
2023/08/23 07:30:00;;;;;;;4.20;2.58;;;;;;;;;;8495030;28;20040;-87
2023/08/23 07:34:03;;;;;;;3.95;2.38;;;;;;;;;;8495782;28;20043;-87
2023/08/23 07:38:09;;;;;;;6.28;2.58;;;;;;;;;;8495406;28;20405;-87
2023/08/23 07:42:12;;;;;;;4.90;2.65;;;;;;;;;;8494384;27;20063;-88
2023/08/23 07:46:15;;;;;;;4.88;2.58;;;;;;;;;;8488375;27;20088;-88
2023/08/23 07:50:18;;;;;;;3.83;2.35;;;;;;;;;;8450065;28;20433;-87
2023/08/23 07:54:22;;;;;;;4.00;2.53;;;;;;;;;;8465832;27;20089;-88
2023/08/23 07:58:26;;;;;;;4.03;2.40;;;;;;;;;;8476918;27;20045;-88
2023/08/23 08:02:31;;;;;;;4.43;2.40;;;;;;;;;;8462745;27;20063;-89
2023/08/23 08:06:34;;;;;;;5.57;2.88;;;;;;;;;;8469815;27;20042;-88
2023/08/23 08:10:39;;;;;;;6.25;2.70;;;;;;;;;;8432527;27;20407;-88
2023/08/23 08:14:42;;;;;;;6.03;2.88;;;;;;;;;;8459272;27;20095;-88
2023/08/23 08:18:46;;;;;;;7.88;3.55;;;;;;;;;;8452718;27;20134;-89
2023/08/23 08:22:53;;;;;;;4.97;3.00;;;;;;;;;;8457914;27;20070;-88
2023/08/23 08:27:04;;;;;;;4.85;2.55;;;;;;;;;;8441300;27;20092;-89
2023/08/23 08:31:07;;;;;;;4.95;2.60;;;;;;;;;;8473316;27;20403;-89
2023/08/23 08:35:10;;;;;;;5.20;2.45;;;;;;;;;;8469685;27;20047;-87
2023/08/23 08:39:16;;;;;;;4.70;2.67;;;;;;;;;;8444627;28;20484;-87
2023/08/23 08:43:24;;;;;;;4.22;2.70;;;;;;;;;;8451928;27;20050;-87
2023/08/23 08:47:27;;;;;;;4.18;2.50;;;;;;;;;;8439852;28;20036;-88
2023/08/23 08:51:33;;;;;;;5.88;2.85;;;;;;;;;;8441892;27;20056;-88
2023/08/23 08:55:36;;;;;;;4.65;2.80;;;;;;;;;;8449877;28;20075;-89
2023/08/23 08:59:43;;;;;;;6.85;2.97;;;;;;;;;;8461202;27;20052;-89
2023/08/23 09:03:46;;;;;;;4.85;2.70;;;;;;;;;;8439632;27;20043;-88
2023/08/23 09:07:50;;;;;;;5.38;2.70;;;;;;;;;;8455023;28;20130;-88
2023/08/23 09:11:55;;;;;;;4.80;2.90;;;;;;;;;;8456500;27;20047;-88
2023/08/23 09:16:01;;;;;;;6.55;2.67;;;;;;;;;;8443193;28;20141;-88
2023/08/23 09:20:09;;;;;;;5.25;3.13;;;;;;;;;;8459895;27;20089;-88
2023/08/23 09:24:12;;;;;;;5.18;2.67;;;;;;;;;;8458963;28;20052;-88
2023/08/23 09:28:16;;;;;;;4.47;3.33;;;;;;;;;;8459416;28;20079;-89
2023/08/23 09:32:20;;;;;;;7.05;3.17;;;;;;;;;;8458219;28;20388;-88
2023/08/23 09:36:28;;;;;;;9.00;3.03;;;;;;;;;;8436564;27;20059;-88
2023/08/23 09:40:34;;;;;;;5.72;2.97;;;;;;;;;;8452269;27;20094;-88
2023/08/23 09:44:41;;;;;;;5.82;3.00;;;;;;;;;;8440603;28;20076;-89
2023/08/23 09:48:48;;;;;;;6.32;3.20;;;;;;;;;;8446440;27;20078;-89
2023/08/23 09:52:54;;;;;;;5.38;3.17;;;;;;;;;;8443841;28;20662;-87
2023/08/23 09:56:57;;;;;;;5.45;3.10;;;;;;;;;;8449972;27;20052;-86
2023/08/23 10:01:12;;;;;;;6.45;3.22;;;;;;;;;;8465950;27;20048;-89
2023/08/23 10:05:22;;;;;;;4.78;2.78;;;;;;;;;;8452216;27;20550;-88
2023/08/23 10:09:25;;;;;;;5.68;3.33;;;;;;;;;;8458230;27;20116;-88
2023/08/23 10:13:30;;;;;;;7.00;3.50;;;;;;;;;;8469751;27;20062;-88
2023/08/23 10:17:34;;;;;;;5.55;3.10;;;;;;;;;;8457742;27;20052;-87
2023/08/23 10:21:38;;;;;;;5.07;2.95;;;;;;;;;;8450506;28;20054;-89
2023/08/23 10:25:43;;;;;;;14.18;3.83;;;;;;;;;;8450724;28;20097;-86
2023/08/23 10:29:51;;;;;;;4.78;2.95;;;;;;;;;;8464041;27;20048;-87
2023/08/23 10:33:57;;;;;;;5.80;3.22;;;;;;;;;;8449169;27;20044;-87
2023/08/23 10:38:03;;;;;;;6.60;3.10;;;;;;;;;;8455163;28;20130;-87
2023/08/23 10:42:06;;;;;;;6.63;3.60;;;;;;;;;;8452151;28;20050;-87
2023/08/23 10:46:10;;;;;;;8.20;3.42;;;;;;;;;;8439407;28;20114;-87
2023/08/23 10:50:13;;;;;;;6.07;3.10;;;;;;;;;;8466239;28;20055;-89
2023/08/23 10:54:17;;;;;;;7.00;3.40;;;;;;;;;;8466726;28;20119;-87
2023/08/23 10:58:21;;;;;;;5.90;3.30;;;;;;;;;;8437674;28;20055;-88
2023/08/23 11:02:23;;;;;;;5.00;2.90;;;;;;;;;;8455387;28;20432;-87
2023/08/23 11:06:28;;;;;;;7.47;3.78;;;;;;;;;;8454788;28;20085;-87
2023/08/23 11:10:32;;;;;;;6.72;4.35;;;;;;;;;;8474737;28;20457;-87
2023/08/23 11:14:36;;;;;;;11.80;6.82;;;;;;;;;;8440039;28;20051;-87
2023/08/23 11:18:39;;;;;;;4.78;2.90;;;;;;;;;;8460368;27;20429;-87
2023/08/23 11:22:45;;;;;;;8.05;2.78;;;;;;;;;;8481191;27;20647;-88
2023/08/23 11:26:50;;;;;;;6.28;2.55;;;;;;;;;;8464364;27;20122;-87
2023/08/23 11:30:54;;;;;;;5.47;2.58;;;;;;;;;;8478250;27;20051;-86
2023/08/23 11:34:57;;;;;;;5.60;2.80;;;;;;;;;;8474598;27;20055;-89
2023/08/23 11:39:04;;;;;;;4.75;2.60;;;;;;;;;;8478420;27;20135;-87
2023/08/23 11:43:08;;;;;;;6.03;2.85;;;;;;;;;;8465257;27;20071;-87
2023/08/23 11:47:11;;;;;;;5.15;2.40;;;;;;;;;;8461475;27;20055;-87
2023/08/23 11:51:14;;;;;;;3.42;2.28;;;;;;;;;;8464812;27;20048;-88
2023/08/23 11:55:27;;;;;;;5.35;2.40;;;;;;;;;;8442792;27;20078;-87
2023/08/23 11:59:31;;;;;;;5.95;2.53;;;;;;;;;;8456522;28;20047;-88
2023/08/23 12:03:35;;;;;;;6.38;2.60;;;;;;;;;;8466408;28;20474;-86
2023/08/23 12:07:38;;;;;;;3.95;2.42;;;;;;;;;;8461376;28;20088;-88
2023/08/23 12:11:41;;;;;;;5.40;2.08;;;;;;;;;;8466576;28;20103;-88
2023/08/23 12:15:46;;;;;;;6.07;2.53;;;;;;;;;;8466962;28;20051;-88
2023/08/23 12:19:48;;;;;;;5.75;2.40;;;;;;;;;;8457568;27;20068;-88
2023/08/23 12:23:51;;;;;;;3.55;2.13;;;;;;;;;;8463564;28;20051;-86
2023/08/23 12:27:54;;;;;;;4.03;2.25;;;;;;;;;;8465245;28;20067;-85
2023/08/23 12:31:59;;;;;;;3.83;2.20;;;;;;;;;;8463895;28;20040;-87
2023/08/23 12:36:02;;;;;;;5.03;2.03;;;;;;;;;;8465218;28;20455;-86
2023/08/23 12:40:08;;;;;;;3.10;1.90;;;;;;;;;;8492546;27;20051;-86
2023/08/23 12:44:11;;;;;;;5.57;2.30;;;;;;;;;;8480921;27;20121;-86
2023/08/23 12:48:15;;;;;;;3.78;2.30;;;;;;;;;;8499035;27;20062;-87
2023/08/23 12:52:18;;;;;;;6.35;2.30;;;;;;;;;;8489701;27;20066;-86
2023/08/23 12:56:21;;;;;;;4.25;1.98;;;;;;;;;;8484924;27;20490;-87
2023/08/23 13:00:24;;;;;;;3.05;1.98;;;;;;;;;;8499350;27;20767;-86
2023/08/23 13:04:29;;;;;;;5.63;2.15;;;;;;;;;;8466089;27;20069;-86
2023/08/23 13:08:32;;;;;;;3.17;2.00;;;;;;;;;;8447669;27;20428;-86
2023/08/23 13:12:36;;;;;;;5.93;1.92;;;;;;;;;;8438988;27;20078;-86
2023/08/23 13:16:40;;;;;;;4.57;2.00;;;;;;;;;;8464890;27;20040;-87
2023/08/23 13:20:45;;;;;;;2.40;1.77;;;;;;;;;;8464499;28;20043;-87
2023/08/23 13:24:50;;;;;;;3.53;1.85;;;;;;;;;;8464561;28;20049;-87
2023/08/23 13:28:53;;;;;;;3.28;1.98;;;;;;;;;;8464539;28;20070;-87
2023/08/23 13:32:56;;;;;;;4.28;2.13;;;;;;;;;;8444338;27;20043;-86
2023/08/23 13:37:02;;;;;;;3.42;1.80;;;;;;;;;;8474826;27;20384;-88
2023/08/23 13:41:08;;;;;;;4.75;2.03;;;;;;;;;;8447504;27;20505;-87
2023/08/23 13:45:12;;;;;;;5.55;2.05;;;;;;;;;;8462213;28;20066;-88
2023/08/23 13:49:15;;;;;;;5.00;1.80;;;;;;;;;;8461495;28;20165;-88
2023/08/23 13:53:20;;;;;;;1.70;1.60;;;;;;;;;;8462835;28;20462;-88
2023/08/23 13:57:23;;;;;;;2.60;1.73;;;;;;;;;;8454001;28;20039;-87
2023/08/23 14:01:27;;;;;;;4.50;1.67;;;;;;;;;;8463238;28;20067;-87
2023/08/23 14:05:30;;;;;;;3.95;2.05;;;;;;;;;;8462548;28;20491;-88
2023/08/23 14:09:34;;;;;;;5.65;1.92;;;;;;;;;;8463333;28;20126;-88
2023/08/23 14:13:37;;;;;;;4.38;1.90;;;;;;;;;;8479802;27;20073;-87
2023/08/23 14:17:41;;;;;;;5.30;1.58;;;;;;;;;;8497155;27;20081;-87
2023/08/23 14:21:44;;;;;;;4.20;1.90;;;;;;;;;;8496948;27;20446;-87
2023/08/23 14:25:48;;;;;;;6.28;1.70;;;;;;;;;;8496522;27;20057;-87
2023/08/23 14:29:51;;;;;;;4.72;1.75;;;;;;;;;;8496548;27;20126;-88
2023/08/23 14:33:54;;;;;;;3.47;1.80;;;;;;;;;;8496324;27;20115;-88
2023/08/23 14:37:57;;;;;;;2.28;1.70;;;;;;;;;;8496051;27;20494;-88
2023/08/23 14:42:02;;;;;;;2.92;1.70;;;;;;;;;;8496464;27;20119;-88
2023/08/23 14:46:05;;;;;;;2.65;1.60;;;;;;;;;;8479193;27;20070;-87
2023/08/23 14:50:08;;;;;;;3.50;1.60;;;;;;;;;;8496288;28;20099;-87
2023/08/23 14:54:11;;;;;;;5.25;1.73;;;;;;;;;;8473068;27;20493;-87
2023/08/23 14:58:15;;;;;;;2.97;1.52;;;;;;;;;;8462213;28;20104;-87
2023/08/23 15:02:18;;;;;;;4.05;1.63;;;;;;;;;;8462041;28;20047;-87
2023/08/23 15:06:21;;;;;;;2.95;1.42;;;;;;;;;;8462141;28;20482;-87
2023/08/23 15:10:24;;;;;;;2.65;1.50;;;;;;;;;;8462025;28;20040;-87
2023/08/23 15:14:29;;;;;;;5.15;2.00;;;;;;;;;;8462062;28;20113;-87
2023/08/23 15:18:31;;;;;;;2.30;1.40;;;;;;;;;;8465711;28;20055;-87
2023/08/23 15:22:34;;;;;;;3.13;1.60;;;;;;;;;;8495448;28;20054;-87
2023/08/23 15:26:37;;;;;;;7.68;1.80;;;;;;;;;;8495633;28;20494;-87
2023/08/23 15:30:44;;;;;;;3.47;1.70;;;;;;;;;;8496096;28;20095;-87
2023/08/23 15:34:52;;;;;;;2.58;2.03;;;;;;;;;;8477576;28;20071;-87
2023/08/23 15:38:55;;;;;;;3.00;1.77;;;;;;;;;;8495821;28;20126;-87
2023/08/23 15:42:58;;;;;;;2.05;1.60;;;;;;;;;;8477359;28;20046;-87
2023/08/23 15:47:02;;;;;;;2.88;1.45;;;;;;;;;;8477715;28;20047;-87
2023/08/23 15:51:05;;;;;;;4.35;1.95;;;;;;;;;;8494990;28;20154;-87
2023/08/23 15:55:10;;;;;;;7.63;2.30;;;;;;;;;;8495069;28;20475;-88
2023/08/23 15:59:13;;;;;;;4.03;2.00;;;;;;;;;;8456430;28;20051;-87
2023/08/23 16:03:18;;;;;;;4.70;2.05;;;;;;;;;;8458729;28;20097;-87
2023/08/23 16:07:23;;;;;;;2.55;1.75;;;;;;;;;;8461706;27;20400;-88
2023/08/23 16:11:28;;;;;;;3.30;1.83;;;;;;;;;;8449179;28;20467;-88
2023/08/23 16:15:32;;;;;;;2.83;1.70;;;;;;;;;;8467256;28;20075;-88
2023/08/23 16:19:39;;;;;;;4.03;1.77;;;;;;;;;;8482688;27;20077;-87
2023/08/23 16:23:43;;;;;;;7.43;2.80;;;;;;;;;;8480034;27;20040;-88
2023/08/23 16:27:46;;;;;;;8.23;3.85;;;;;;;;;;8468138;27;20043;-87
2023/08/23 16:31:50;;;;;;;3.47;2.20;;;;;;;;;;8458684;27;20131;-87
2023/08/23 16:35:55;;;;;;;7.18;2.35;;;;;;;;;;8467005;27;20576;-88
2023/08/23 16:39:59;;;;;;;4.03;1.80;;;;;;;;;;8475087;27;20202;-87
2023/08/23 16:44:03;;;;;;;3.80;2.00;;;;;;;;;;8473192;27;20056;-87
2023/08/23 16:48:07;;;;;;;3.42;1.98;;;;;;;;;;8443140;28;20039;-87
2023/08/23 16:52:13;;;;;;;4.35;2.00;;;;;;;;;;8465370;28;20075;-87
2023/08/23 16:56:18;;;;;;;4.72;2.00;;;;;;;;;;8463107;27;20051;-87
2023/08/23 17:00:21;;;;;;;4.97;2.15;;;;;;;;;;8472322;27;20200;-87
2023/08/23 17:04:25;;;;;;;4.63;2.10;;;;;;;;;;8499001;27;20035;-88
2023/08/23 17:08:31;;;;;;;3.60;1.88;;;;;;;;;;8498836;27;20130;-87
2023/08/23 17:12:36;;;;;;;7.72;2.10;;;;;;;;;;8482328;27;20084;-87
2023/08/23 17:16:40;;;;;;;6.80;1.95;;;;;;;;;;8479799;27;20047;-89
2023/08/23 17:20:45;;;;;;;4.25;2.08;;;;;;;;;;8471224;27;20063;-88
2023/08/23 17:24:50;;;;;;;5.10;2.28;;;;;;;;;;8475842;27;20103;-88
2023/08/23 17:28:56;;;;;;;4.32;2.40;;;;;;;;;;8498215;27;20042;-88
2023/08/23 17:33:00;;;;;;;3.53;2.30;;;;;;;;;;8479612;27;20043;-88
2023/08/23 17:37:04;;;;;;;5.70;2.65;;;;;;;;;;8497875;27;20510;-87
2023/08/23 17:41:11;;;;;;;3.97;2.30;;;;;;;;;;8479562;27;20133;-87
2023/08/23 17:45:17;;;;;;;3.95;2.53;;;;;;;;;;8497533;27;20043;-88
2023/08/23 17:49:20;;;;;;;5.25;2.45;;;;;;;;;;8479112;27;20042;-87
2023/08/23 17:53:24;;;;;;;4.68;2.40;;;;;;;;;;8479485;27;20055;-87
2023/08/23 17:57:32;;;;;;;5.05;2.63;;;;;;;;;;8497132;27;20046;-88
2023/08/23 18:01:37;;;;;;;9.57;3.28;;;;;;;;;;8497297;27;20045;-87
2023/08/23 18:05:42;;;;;;;8.35;4.70;;;;;;;;;;8497133;27;20043;-87
2023/08/23 18:09:46;;;;;;;11.65;4.70;;;;;;;;;;8455905;27;20047;-87
2023/08/23 18:13:52;;;;;;;11.68;4.90;;;;;;;;;;8496810;27;20122;-87
2023/08/23 18:17:56;;;;;;;11.45;5.97;;;;;;;;;;8496012;27;20092;-87
2023/08/23 18:22:00;;;;;;;10.00;5.38;;;;;;;;;;8496016;27;20510;-87
2023/08/23 18:26:08;;;;;;;12.82;5.30;;;;;;;;;;8477512;27;20056;-88
2023/08/23 18:30:15;;;;;;;11.45;6.00;;;;;;;;;;8482747;27;20123;-87
2023/08/23 18:34:19;;;;;;;16.35;7.40;;;;;;;;;;8488594;27;20512;-88
2023/08/23 18:38:23;;;;;;;12.63;6.32;;;;;;;;;;8497245;27;20538;-88
2023/08/23 18:42:29;;;;;;;16.38;5.60;;;;;;;;;;8450011;28;20036;-88
2023/08/23 18:46:35;;;;;;;7.85;4.63;;;;;;;;;;8480466;27;20043;-87
2023/08/23 18:50:43;;;;;;;8.25;4.70;;;;;;;;;;8458833;28;20082;-87
2023/08/23 18:54:48;;;;;;;10.52;6.28;;;;;;;;;;8484819;28;20538;-87
2023/08/23 18:59:00;;;;;;;12.23;5.47;;;;;;;;;;8468282;28;20127;-88
2023/08/23 19:03:06;;;;;;;6.40;4.38;;;;;;;;;;8454934;28;20567;-88
2023/08/23 19:07:12;;;;;;;7.70;4.80;;;;;;;;;;8479436;28;20126;-88
2023/08/23 19:11:18;;;;;;;9.63;5.18;;;;;;;;;;8495286;28;20035;-88
2023/08/23 19:15:22;;;;;;;11.45;5.20;;;;;;;;;;8482193;28;20047;-88
2023/08/23 19:19:29;;;;;;;8.20;4.55;;;;;;;;;;8482584;28;20039;-88
2023/08/23 19:23:34;;;;;;;9.25;4.53;;;;;;;;;;8460333;28;20052;-87
2023/08/23 19:27:39;;;;;;;8.50;4.75;;;;;;;;;;8461848;28;20467;-87
2023/08/23 19:31:59;;;;;;;8.07;4.78;;;;;;;;;;8461778;28;20044;-87
2023/08/23 19:36:06;;;;;;;9.27;4.50;;;;;;;;;;8449978;28;20478;-86
2023/08/23 19:40:12;;;;;;;6.03;4.32;;;;;;;;;;8464795;28;20043;-86
2023/08/23 19:44:19;;;;;;;8.38;4.85;;;;;;;;;;8468270;28;20046;-86
2023/08/23 19:48:24;;;;;;;10.00;5.32;;;;;;;;;;8449808;28;20479;-86
2023/08/23 19:52:32;;;;;;;10.55;6.10;;;;;;;;;;8467151;28;20047;-86
2023/08/23 19:56:36;;;;;;;8.18;5.05;;;;;;;;;;8467636;28;20486;-86
2023/08/23 20:00:41;;;;;;;8.88;4.75;;;;;;;;;;8466943;28;20036;-87
2023/08/23 20:04:45;;;;;;;10.52;5.10;;;;;;;;;;8467382;28;20540;-87
2023/08/23 20:08:52;;;;;;;7.93;5.47;;;;;;;;;;8467143;28;20062;-86
2023/08/23 20:12:55;;;;;;;9.20;5.57;;;;;;;;;;8467352;28;20046;-88
2023/08/23 20:17:01;;;;;;;10.02;5.93;;;;;;;;;;8466802;28;20043;-87
2023/08/23 20:21:05;;;;;;;9.90;5.60;;;;;;;;;;8467209;28;20048;-87
2023/08/23 20:25:12;;;;;;;10.18;6.22;;;;;;;;;;8466513;28;20478;-86
2023/08/23 20:29:18;;;;;;;9.25;6.25;;;;;;;;;;8466905;28;20130;-87
2023/08/23 20:33:24;;;;;;;11.02;5.05;;;;;;;;;;8466139;28;20047;-87
2023/08/23 20:37:29;;;;;;;14.73;7.43;;;;;;;;;;8466446;28;20044;-88
2023/08/23 20:41:36;;;;;;;14.30;6.82;;;;;;;;;;8452858;28;20073;-87
2023/08/23 20:45:43;;;;;;;9.70;4.95;;;;;;;;;;8466209;28;20044;-87
2023/08/23 20:49:48;;;;;;;7.18;4.53;;;;;;;;;;8461953;28;20059;-87
2023/08/23 20:53:53;;;;;;;6.47;4.22;;;;;;;;;;8465648;28;20454;-87
2023/08/23 20:58:02;;;;;;;10.52;4.85;;;;;;;;;;8465733;28;20118;-87
2023/08/23 21:02:06;;;;;;;9.00;4.97;;;;;;;;;;8465362;28;20099;-87
2023/08/23 21:06:09;;;;;;;11.15;5.32;;;;;;;;;;8465424;28;20047;-87
2023/08/23 21:10:12;;;;;;;9.50;5.05;;;;;;;;;;8465170;28;20044;-87
2023/08/23 21:14:16;;;;;;;10.13;4.90;;;;;;;;;;8465392;28;20494;-87
2023/08/23 21:18:19;;;;;;;8.20;4.60;;;;;;;;;;8464658;28;20039;-87
2023/08/23 21:22:22;;;;;;;9.85;5.30;;;;;;;;;;8465227;28;20116;-87
2023/08/23 21:26:24;;;;;;;11.48;5.35;;;;;;;;;;8446429;28;20040;-87
2023/08/23 21:30:29;;;;;;;9.07;5.32;;;;;;;;;;8464720;28;20119;-87
2023/08/23 21:34:32;;;;;;;10.23;5.85;;;;;;;;;;8464462;28;20066;-88
2023/08/23 21:38:34;;;;;;;8.95;5.60;;;;;;;;;;8464310;28;20491;-88
2023/08/23 21:42:37;;;;;;;9.43;5.88;;;;;;;;;;8464272;28;20067;-87
2023/08/23 21:46:42;;;;;;;9.02;5.70;;;;;;;;;;8464282;28;20177;-87
2023/08/23 21:50:45;;;;;;;11.85;6.22;;;;;;;;;;8463565;28;20052;-87
2023/08/23 21:54:47;;;;;;;11.90;5.95;;;;;;;;;;8464112;28;20633;-87
2023/08/23 21:58:50;;;;;;;8.25;5.65;;;;;;;;;;8463579;28;20046;-87
2023/08/23 22:02:54;;;;;;;9.70;5.32;;;;;;;;;;8463088;28;20113;-87
2023/08/23 22:06:57;;;;;;;9.95;5.50;;;;;;;;;;8463845;28;20048;-87
2023/08/23 22:11:02;;;;;;;9.23;5.75;;;;;;;;;;8463600;28;20138;-87
2023/08/23 22:15:06;;;;;;;9.13;5.40;;;;;;;;;;8462859;28;20043;-87
2023/08/23 22:19:12;;;;;;;11.90;5.75;;;;;;;;;;8463601;28;20051;-87
2023/08/23 22:23:16;;;;;;;10.63;6.32;;;;;;;;;;8462957;28;20376;-87
2023/08/23 22:27:19;;;;;;;13.40;7.00;;;;;;;;;;8463156;28;20054;-87
2023/08/23 22:31:22;;;;;;;11.02;6.07;;;;;;;;;;8463103;28;20123;-87
2023/08/23 22:35:26;;;;;;;11.13;6.53;;;;;;;;;;8458022;28;20542;-88
2023/08/23 22:39:29;;;;;;;10.10;6.47;;;;;;;;;;8462389;27;20100;-88
2023/08/23 22:43:32;;;;;;;9.07;6.22;;;;;;;;;;8478247;27;20222;-88
2023/08/23 22:47:35;;;;;;;11.48;5.60;;;;;;;;;;8487797;27;20043;-87
2023/08/23 22:51:39;;;;;;;10.40;5.80;;;;;;;;;;8457775;27;20056;-88
2023/08/23 22:55:42;;;;;;;11.10;5.80;;;;;;;;;;8488970;28;20522;-88
2023/08/23 22:59:45;;;;;;;11.63;6.40;;;;;;;;;;8468231;28;20036;-89
2023/08/23 23:03:48;;;;;;;9.73;6.43;;;;;;;;;;8489934;28;20043;-87
2023/08/23 23:07:52;;;;;;;9.02;5.93;;;;;;;;;;8473709;28;20043;-88
2023/08/23 23:11:55;;;;;;;10.93;6.75;;;;;;;;;;8481221;28;20043;-89
2023/08/23 23:16:04;;;;;;;11.60;6.90;;;;;;;;;;8500180;27;20043;-88
2023/08/23 23:20:11;;;;;;;12.85;6.70;;;;;;;;;;8472380;27;20049;-87
2023/08/23 23:24:15;;;;;;;14.93;6.70;;;;;;;;;;8485554;27;20047;-88
2023/08/23 23:28:18;;;;;;;10.05;5.20;;;;;;;;;;8492457;27;20096;-88
2023/08/23 23:32:21;;;;;;;9.98;5.72;;;;;;;;;;8457718;27;20127;-87
2023/08/23 23:36:24;;;;;;;8.05;5.07;;;;;;;;;;8459798;27;20047;-88
2023/08/23 23:40:29;;;;;;;9.52;5.63;;;;;;;;;;8487369;27;20039;-87
2023/08/23 23:44:32;;;;;;;9.18;5.00;;;;;;;;;;8488293;27;20051;-88
2023/08/23 23:48:35;;;;;;;9.45;5.47;;;;;;;;;;8487514;27;20089;-89
2023/08/23 23:52:38;;;;;;;13.93;5.30;;;;;;;;;;8465415;27;20055;-88
2023/08/23 23:56:42;;;;;;;12.07;5.13;;;;;;;;;;8467723;28;20089;-88
